createdAt,value
2023-05-02T00:02:23.098Z,10.49
2023-05-02T00:04:51.618Z,10.52
2023-05-02T00:07:18.642Z,10.54
2023-05-02T00:09:45.910Z,10.53
2023-05-02T00:12:12.967Z,10.55
2023-05-02T00:14:40.016Z,10.57
2023-05-02T00:17:08.164Z,10.57
2023-05-02T00:19:40.314Z,10.57
2023-05-02T00:22:07.357Z,10.59
2023-05-02T00:24:34.556Z,10.61
2023-05-02T00:27:02.754Z,10.60
2023-05-02T00:29:29.824Z,10.63
2023-05-02T00:31:58.254Z,10.65
2023-05-02T00:34:30.847Z,10.59
2023-05-02T00:36:58.221Z,10.58
2023-05-02T00:39:25.696Z,10.51
2023-05-02T00:41:59.791Z,10.43
2023-05-02T00:44:27.064Z,10.36
2023-05-02T00:46:55.246Z,10.34
2023-05-02T00:49:22.991Z,10.28
2023-05-02T00:51:50.632Z,10.24
2023-05-02T00:54:18.398Z,10.22
2023-05-02T00:56:45.958Z,10.17
2023-05-02T00:59:14.131Z,10.15
2023-05-02T01:02:06.374Z,10.19
2023-05-02T01:05:11.461Z,10.24
2023-05-02T01:07:41.531Z,10.27
2023-05-02T01:10:40.331Z,10.29
2023-05-02T01:13:09.241Z,10.24
2023-05-02T01:15:39.763Z,10.21
2023-05-02T01:18:10.358Z,10.19
2023-05-02T01:20:42.672Z,10.18
2023-05-02T01:23:41.375Z,10.18
2023-05-02T01:26:17.864Z,10.18
2023-05-02T01:29:02.364Z,10.16
2023-05-02T01:31:33.539Z,10.16
2023-05-02T01:34:01.753Z,10.10
2023-05-02T01:36:31.886Z,10.04
2023-05-02T01:39:01.805Z,10.00
2023-05-02T01:41:31.779Z,9.98
2023-05-02T01:44:00.261Z,10.00
2023-05-02T01:46:31.729Z,10.01
2023-05-02T01:49:04.223Z,10.04
2023-05-02T01:51:33.949Z,10.10
2023-05-02T01:54:06.130Z,10.10
2023-05-02T01:56:35.838Z,10.14
2023-05-02T01:59:05.600Z,10.10
2023-05-02T02:01:36.361Z,10.14
2023-05-02T02:04:05.600Z,10.14
2023-05-02T02:06:33.412Z,10.16
2023-05-02T02:09:00.813Z,10.18
2023-05-02T02:11:44.421Z,10.20
2023-05-02T02:14:20.423Z,10.23
2023-05-02T02:16:48.882Z,10.23
2023-05-02T02:19:16.092Z,10.23
2023-05-02T02:21:45.506Z,10.18
2023-05-02T02:24:13.773Z,10.22
2023-05-02T02:26:41.979Z,10.22
2023-05-02T02:29:08.984Z,10.26
2023-05-02T02:31:36.611Z,10.20
2023-05-02T02:34:04.107Z,10.19
2023-05-02T02:36:39.927Z,9.86
2023-05-02T02:39:18.394Z,10.15
2023-05-02T02:42:01.880Z,9.86
2023-05-02T02:44:45.266Z,9.85
2023-05-02T02:47:22.084Z,10.16
2023-05-02T02:50:11.792Z,9.88
2023-05-02T02:52:52.574Z,9.94
2023-05-02T02:55:38.416Z,10.13
2023-05-02T02:58:19.146Z,10.11
2023-05-02T03:00:47.458Z,9.92
2023-05-02T03:03:16.098Z,9.82
2023-05-02T03:05:44.155Z,10.10
2023-05-02T03:08:11.398Z,10.06
2023-05-02T03:10:39.229Z,9.92
2023-05-02T03:13:07.715Z,9.87
2023-05-02T03:15:37.667Z,10.09
2023-05-02T03:18:05.067Z,9.91
2023-05-02T03:20:32.470Z,10.02
2023-05-02T03:23:01.334Z,9.89
2023-05-02T03:25:28.410Z,9.78
2023-05-02T03:27:58.435Z,10.04
2023-05-02T03:30:26.325Z,9.86
2023-05-02T03:32:54.056Z,10.00
2023-05-02T03:35:21.705Z,9.91
2023-05-02T03:37:51.234Z,9.92
2023-05-02T03:40:22.109Z,10.00
2023-05-02T03:42:49.343Z,9.99
2023-05-02T03:45:25.981Z,9.95
2023-05-02T03:47:53.806Z,9.96
2023-05-02T03:50:22.246Z,9.77
2023-05-02T03:52:51.752Z,9.89
2023-05-02T03:55:24.041Z,9.88
2023-05-02T03:57:51.665Z,9.85
2023-05-02T04:00:18.782Z,9.99
2023-05-02T04:02:52.843Z,9.98
2023-05-02T04:05:23.747Z,10.13
2023-05-02T04:07:51.333Z,10.10
2023-05-02T04:10:18.854Z,9.93
2023-05-02T04:12:52.856Z,10.10
2023-05-02T04:15:21.211Z,9.99
2023-05-02T04:17:49.833Z,10.05
2023-05-02T04:20:17.878Z,10.10
2023-05-02T04:22:50.486Z,10.21
2023-05-02T04:25:18.121Z,10.20
2023-05-02T04:27:46.327Z,10.26
2023-05-02T04:30:16.745Z,10.09
2023-05-02T04:32:51.150Z,9.98
2023-05-02T04:35:18.615Z,10.19
2023-05-02T04:37:46.481Z,9.93
2023-05-02T04:40:14.226Z,10.10
2023-05-02T04:42:43.217Z,10.24
2023-05-02T04:45:17.247Z,10.27
2023-05-02T04:47:45.844Z,10.01
2023-05-02T04:50:12.916Z,10.12
2023-05-02T04:52:39.972Z,10.19
2023-05-02T04:55:07.623Z,9.88
2023-05-02T04:57:34.674Z,10.02
2023-05-02T05:00:03.840Z,9.89
2023-05-02T05:02:32.063Z,9.76
2023-05-02T05:05:02.081Z,9.76
2023-05-02T05:07:29.484Z,9.82
2023-05-02T05:09:57.945Z,9.77
2023-05-02T05:12:28.589Z,9.69
2023-05-02T05:14:55.930Z,9.80
2023-05-02T05:17:25.622Z,9.93
2023-05-02T05:19:53.363Z,10.00
2023-05-02T05:22:21.116Z,10.01
2023-05-02T05:24:53.461Z,10.28
2023-05-02T05:27:22.284Z,10.32
2023-05-02T05:29:49.621Z,10.30
2023-05-02T05:32:17.861Z,10.33
2023-05-02T05:34:45.750Z,10.36
2023-05-02T05:37:14.057Z,10.08
2023-05-02T05:39:42.126Z,10.41
2023-05-02T05:42:10.674Z,10.25
2023-05-02T05:44:40.304Z,10.48
2023-05-02T05:47:08.230Z,10.45
2023-05-02T05:49:38.964Z,10.26
2023-05-02T05:52:08.795Z,10.23
2023-05-02T05:54:36.384Z,10.44
2023-05-02T05:57:03.966Z,10.14
2023-05-02T05:59:31.258Z,10.24
2023-05-02T06:01:59.739Z,10.26
2023-05-02T06:04:27.191Z,10.40
2023-05-02T06:06:54.980Z,10.43
2023-05-02T06:09:22.414Z,10.41
2023-05-02T06:11:49.586Z,10.04
2023-05-02T06:14:16.814Z,10.09
2023-05-02T06:16:46.421Z,10.22
2023-05-02T06:19:13.621Z,9.95
2023-05-02T06:21:40.743Z,10.11
2023-05-02T06:24:07.792Z,9.91
2023-05-02T06:26:34.944Z,9.94
2023-05-02T06:29:02.810Z,10.13
2023-05-02T06:31:29.919Z,9.94
2023-05-02T06:33:57.164Z,10.12
2023-05-02T06:36:24.264Z,10.01
2023-05-02T06:38:51.335Z,9.95
2023-05-02T06:41:20.909Z,10.04
2023-05-02T06:43:47.964Z,9.94
2023-05-02T06:46:15.545Z,10.16
2023-05-02T06:48:42.893Z,10.09
2023-05-02T06:51:09.889Z,9.93
2023-05-02T06:53:38.156Z,10.11
2023-05-02T06:56:07.042Z,9.96
2023-05-02T06:58:34.372Z,9.99
2023-05-02T07:01:01.445Z,9.98
2023-05-02T07:03:28.745Z,9.99
2023-05-02T07:05:55.924Z,10.08
2023-05-02T07:08:24.179Z,10.00
2023-05-02T07:10:51.742Z,10.09
2023-05-02T07:13:19.028Z,10.35
2023-05-02T07:15:46.136Z,10.09
2023-05-02T07:18:13.284Z,10.18
2023-05-02T07:20:42.546Z,10.27
2023-05-02T07:23:09.839Z,10.53
2023-05-02T07:25:37.523Z,10.39
2023-05-02T07:28:05.043Z,10.76
2023-05-02T07:30:32.162Z,10.64
2023-05-02T07:32:59.224Z,10.59
2023-05-02T07:35:26.435Z,10.63
2023-05-02T07:37:53.554Z,10.56
2023-05-02T07:40:21.068Z,10.61
2023-05-02T07:42:49.184Z,10.66
2023-05-02T07:45:16.443Z,10.73
2023-05-02T07:47:43.657Z,10.77
2023-05-02T07:50:11.690Z,11.16
2023-05-02T07:52:38.926Z,11.18
2023-05-02T07:55:06.495Z,11.17
2023-05-02T07:57:33.660Z,11.31
2023-05-02T08:00:01.134Z,11.39
2023-05-02T08:02:29.258Z,11.47
2023-05-02T08:04:56.542Z,11.73
2023-05-02T08:07:23.706Z,11.49
2023-05-02T08:09:50.878Z,11.66
2023-05-02T08:12:18.009Z,11.67
2023-05-02T08:14:45.130Z,11.93
2023-05-02T08:17:12.474Z,11.76
2023-05-02T08:19:39.494Z,11.67
2023-05-02T08:22:07.090Z,11.87
2023-05-02T08:24:34.173Z,12.05
2023-05-02T08:27:03.156Z,11.82
2023-05-02T08:29:31.433Z,12.17
2023-05-02T08:31:58.859Z,12.25
2023-05-02T08:34:26.382Z,12.16
2023-05-02T08:36:53.390Z,12.46
2023-05-02T08:39:20.381Z,12.58
2023-05-02T08:41:47.407Z,12.66
2023-05-02T08:44:14.400Z,12.79
2023-05-02T08:46:42.509Z,12.97
2023-05-02T08:49:15.849Z,13.08
2023-05-02T08:51:45.137Z,13.09
2023-05-02T08:54:17.703Z,13.20
2023-05-02T08:56:45.401Z,13.30
2023-05-02T08:59:12.347Z,13.33
2023-05-02T09:01:42.008Z,13.35
2023-05-02T09:04:09.576Z,13.38
2023-05-02T09:06:36.715Z,13.46
2023-05-02T09:09:04.061Z,13.54
2023-05-02T09:11:31.394Z,13.64
2023-05-02T09:14:04.189Z,13.68
2023-05-02T09:16:39.456Z,13.78
2023-05-02T09:19:06.523Z,13.75
2023-05-02T09:21:42.366Z,13.77
2023-05-02T09:24:20.916Z,13.76
2023-05-02T09:27:05.194Z,13.85
2023-05-02T09:29:39.056Z,13.80
2023-05-02T09:32:07.327Z,13.73
2023-05-02T09:34:34.729Z,13.66
2023-05-02T09:37:04.173Z,13.66
2023-05-02T09:39:31.766Z,13.69
2023-05-02T09:41:59.770Z,13.70
2023-05-02T09:44:37.016Z,13.78
2023-05-02T09:47:04.062Z,13.87
2023-05-02T09:49:46.118Z,13.94
2023-05-02T09:52:18.669Z,14.07
2023-05-02T09:54:47.118Z,14.12
2023-05-02T09:57:14.278Z,14.12
2023-05-02T09:59:41.912Z,14.09
2023-05-02T10:02:11.698Z,14.09
2023-05-02T10:04:40.386Z,14.21
2023-05-02T10:07:11.016Z,14.25
2023-05-02T10:09:45.800Z,14.28
2023-05-02T10:12:15.808Z,14.38
2023-05-02T10:14:53.484Z,14.46
2023-05-02T10:17:31.834Z,14.64
2023-05-02T10:20:05.661Z,14.68
2023-05-02T10:22:37.109Z,14.75
2023-05-02T10:25:05.603Z,14.73
2023-05-02T10:27:33.449Z,14.74
2023-05-02T10:30:01.469Z,14.75
2023-05-02T10:32:33.726Z,14.81
2023-05-02T10:35:06.422Z,14.86
2023-05-02T10:37:36.627Z,14.89
2023-05-02T10:40:05.689Z,14.92
2023-05-02T10:42:38.051Z,14.98
2023-05-02T10:45:05.563Z,15.09
2023-05-02T10:47:33.135Z,15.21
2023-05-02T10:50:03.610Z,15.36
2023-05-02T10:52:35.875Z,15.42
2023-05-02T10:55:22.717Z,15.47
2023-05-02T10:58:04.811Z,15.37
2023-05-02T11:00:34.196Z,15.32
2023-05-02T11:03:07.145Z,15.32
2023-05-02T11:06:05.732Z,15.36
2023-05-02T11:08:32.951Z,15.42
2023-05-02T11:11:39.402Z,15.48
2023-05-02T11:14:06.492Z,15.44
2023-05-02T11:17:01.353Z,15.40
2023-05-02T11:19:51.984Z,15.32
2023-05-02T11:22:19.363Z,15.29
2023-05-02T11:24:48.388Z,15.30
2023-05-02T11:27:30.779Z,15.29
2023-05-02T11:30:02.201Z,15.24
2023-05-02T11:32:49.370Z,15.26
2023-05-02T11:35:16.620Z,15.27
2023-05-02T11:37:43.617Z,15.27
2023-05-02T11:40:12.477Z,15.30
2023-05-02T11:42:39.485Z,15.27
2023-05-02T11:45:06.856Z,15.28
2023-05-02T11:47:34.543Z,15.32
2023-05-02T11:50:05.287Z,15.50
2023-05-02T11:52:38.688Z,15.62
2023-05-02T11:55:11.800Z,15.83
2023-05-02T11:57:39.964Z,16.00
2023-05-02T12:00:08.328Z,16.16
2023-05-02T12:02:42.685Z,16.15
2023-05-02T12:05:13.375Z,16.14
2023-05-02T12:07:45.370Z,16.05
2023-05-02T12:10:13.587Z,15.90
2023-05-02T12:12:42.851Z,15.78
2023-05-02T12:15:11.932Z,15.68
2023-05-02T12:17:44.876Z,15.60
2023-05-02T12:20:12.880Z,15.55
2023-05-02T12:22:40.232Z,15.53
2023-05-02T12:25:08.034Z,15.53
2023-05-02T12:27:35.557Z,15.58
2023-05-02T12:30:03.060Z,15.68
2023-05-02T12:32:36.183Z,15.91
2023-05-02T12:35:04.382Z,16.32
2023-05-02T12:37:32.574Z,16.73
2023-05-02T12:39:59.909Z,17.06
2023-05-02T12:42:27.464Z,17.35
2023-05-02T12:44:54.931Z,17.58
2023-05-02T12:47:25.361Z,17.77
2023-05-02T12:49:57.749Z,17.91
2023-05-02T12:52:47.928Z,18.14
2023-05-02T12:55:24.655Z,18.22
2023-05-02T12:58:01.155Z,18.46
2023-05-02T13:00:28.607Z,19.00
2023-05-02T13:02:55.910Z,19.74
2023-05-02T13:05:23.294Z,20.49
2023-05-02T13:07:50.420Z,21.10
2023-05-02T13:10:18.449Z,21.60
2023-05-02T13:12:48.347Z,21.75
2023-05-02T13:15:15.803Z,21.57
2023-05-02T13:17:43.451Z,21.30
2023-05-02T13:20:10.989Z,20.84
2023-05-02T13:22:53.444Z,20.45
2023-05-02T13:25:20.375Z,20.21
2023-05-02T13:27:47.378Z,20.14
2023-05-02T13:30:14.662Z,20.02
2023-05-02T13:32:41.961Z,19.84
2023-05-02T13:35:09.808Z,19.68
2023-05-02T13:37:36.926Z,19.58
2023-05-02T13:40:05.452Z,19.45
2023-05-02T13:42:32.847Z,19.36
2023-05-02T13:45:00.242Z,19.31
2023-05-02T13:47:27.322Z,19.21
2023-05-02T13:49:54.395Z,19.10
2023-05-02T13:52:21.524Z,18.95
2023-05-02T13:54:49.001Z,18.76
2023-05-02T13:57:16.512Z,18.61
2023-05-02T13:59:43.650Z,18.48
2023-05-02T14:02:11.080Z,18.36
2023-05-02T14:04:38.162Z,18.26
2023-05-02T14:07:05.332Z,18.15
2023-05-02T14:09:32.451Z,18.00
2023-05-02T14:11:59.534Z,17.92
2023-05-02T14:14:26.584Z,17.88
2023-05-02T14:16:53.735Z,17.75
2023-05-02T14:19:20.852Z,17.58
2023-05-02T14:21:48.226Z,17.42
2023-05-02T14:24:16.726Z,17.24
2023-05-02T14:26:43.770Z,17.24
2023-05-02T14:29:10.997Z,17.24
2023-05-02T14:31:38.160Z,17.19
2023-05-02T14:34:06.919Z,17.12
2023-05-02T14:36:35.884Z,17.02
2023-05-02T14:39:03.057Z,16.89
2023-05-02T14:41:30.073Z,16.75
2023-05-02T14:43:57.077Z,16.62
2023-05-02T14:46:24.078Z,16.55
2023-05-02T14:48:51.136Z,16.44
2023-05-02T14:51:18.149Z,16.32
2023-05-02T14:53:45.561Z,16.30
2023-05-02T14:56:14.308Z,16.21
2023-05-02T14:58:41.482Z,16.13
2023-05-02T15:01:16.312Z,16.02
2023-05-02T15:04:03.500Z,15.83
2023-05-02T15:06:31.798Z,15.75
2023-05-02T15:08:58.769Z,15.82
2023-05-02T15:11:25.921Z,15.85
2023-05-02T15:13:52.863Z,15.84
2023-05-02T15:16:20.190Z,15.93
2023-05-02T15:18:47.330Z,16.07
2023-05-02T15:21:14.326Z,16.22
2023-05-02T15:23:41.450Z,16.34
2023-05-02T15:26:08.438Z,16.42
2023-05-02T15:28:35.977Z,16.51
2023-05-02T15:31:03.049Z,16.55
2023-05-02T15:33:30.067Z,16.59
2023-05-02T15:35:58.692Z,16.60
2023-05-02T15:38:26.183Z,16.54
2023-05-02T15:41:00.878Z,16.55
2023-05-02T15:43:28.189Z,16.57
2023-05-02T15:45:57.197Z,16.62
2023-05-02T15:48:27.405Z,16.67
2023-05-02T15:50:54.455Z,16.72
2023-05-02T15:53:24.327Z,16.72
2023-05-02T15:55:53.026Z,16.76
2023-05-02T15:58:24.304Z,16.84
2023-05-02T16:00:56.204Z,16.90
2023-05-02T16:03:24.686Z,16.89
2023-05-02T16:05:59.995Z,16.89
2023-05-02T16:08:28.721Z,16.90
2023-05-02T16:10:56.628Z,16.92
2023-05-02T16:13:23.942Z,16.90
2023-05-02T16:15:56.141Z,16.86
2023-05-02T16:18:28.748Z,16.82
2023-05-02T16:20:57.573Z,16.72
2023-05-02T16:23:26.172Z,16.59
2023-05-02T16:26:01.061Z,16.47
2023-05-02T16:28:28.868Z,16.36
2023-05-02T16:30:56.185Z,16.29
2023-05-02T16:33:23.752Z,16.18
2023-05-02T16:36:01.883Z,16.03
2023-05-02T16:38:29.911Z,15.90
2023-05-02T16:41:04.096Z,15.79
2023-05-02T16:43:32.883Z,15.68
2023-05-02T16:46:07.503Z,15.64
2023-05-02T16:48:35.343Z,15.59
2023-05-02T16:51:04.253Z,15.57
2023-05-02T16:53:32.131Z,15.57
2023-05-02T16:56:02.193Z,15.56
2023-05-02T16:58:29.584Z,15.49
2023-05-02T17:00:57.047Z,15.45
2023-05-02T17:03:24.254Z,15.36
2023-05-02T17:05:51.359Z,15.25
2023-05-02T17:08:20.419Z,15.19
2023-05-02T17:10:52.041Z,15.17
2023-05-02T17:13:19.713Z,15.07
2023-05-02T17:15:52.920Z,15.08
2023-05-02T17:18:20.883Z,15.05
2023-05-02T17:20:55.588Z,14.97
2023-05-02T17:23:23.398Z,14.93
2023-05-02T17:25:51.339Z,14.85
2023-05-02T17:28:18.363Z,14.82
2023-05-02T17:30:48.184Z,14.81
2023-05-02T17:33:15.305Z,14.82
2023-05-02T17:35:43.367Z,14.81
2023-05-02T17:38:11.872Z,14.77
2023-05-02T17:40:40.969Z,14.74
2023-05-02T17:43:08.605Z,14.72
2023-05-02T17:45:36.478Z,14.64
2023-05-02T17:48:04.303Z,14.54
2023-05-02T17:50:32.024Z,14.44
2023-05-02T17:52:59.524Z,14.34
2023-05-02T17:55:32.300Z,14.30
2023-05-02T17:57:59.646Z,14.24
2023-05-02T18:00:27.060Z,14.15
2023-05-02T18:02:55.593Z,14.07
2023-05-02T18:05:28.830Z,13.98
2023-05-02T18:08:01.356Z,13.91
2023-05-02T18:10:29.186Z,13.86
2023-05-02T18:12:56.133Z,13.77
2023-05-02T18:15:23.519Z,13.72
2023-05-02T18:17:52.000Z,13.63
2023-05-02T18:20:23.452Z,13.57
2023-05-02T18:22:53.725Z,13.47
2023-05-02T18:25:21.634Z,13.36
2023-05-02T18:27:49.406Z,13.25
2023-05-02T18:30:22.605Z,13.19
2023-05-02T18:32:52.730Z,13.14
2023-05-02T18:35:19.855Z,13.11
2023-05-02T18:37:46.812Z,13.04
2023-05-02T18:40:14.029Z,13.00
2023-05-02T18:42:41.442Z,12.93
2023-05-02T18:45:10.530Z,12.83
2023-05-02T18:47:39.938Z,12.74
2023-05-02T18:50:09.062Z,12.59
2023-05-02T18:52:36.824Z,12.51
2023-05-02T18:55:07.361Z,12.41
2023-05-02T18:57:34.406Z,12.33
2023-05-02T19:00:01.619Z,12.29
2023-05-02T19:02:31.645Z,12.27
2023-05-02T19:04:58.813Z,12.22
2023-05-02T19:07:25.923Z,12.16
2023-05-02T19:09:53.071Z,12.08
2023-05-02T19:12:21.490Z,12.06
2023-05-02T19:14:51.747Z,12.04
2023-05-02T19:17:22.217Z,12.01
2023-05-02T19:19:51.711Z,11.92
2023-05-02T19:22:22.921Z,11.86
2023-05-02T19:24:52.649Z,11.81
2023-05-02T19:27:28.120Z,11.78
2023-05-02T19:29:55.469Z,11.75
2023-05-02T19:32:23.193Z,11.74
2023-05-02T19:34:50.571Z,11.76
2023-05-02T19:37:18.437Z,11.69
2023-05-02T19:39:52.116Z,11.62
2023-05-02T19:42:19.654Z,11.64
2023-05-02T19:44:53.517Z,11.62
2023-05-02T19:47:21.712Z,11.63
2023-05-02T19:49:51.236Z,11.60
2023-05-02T19:52:19.870Z,11.61
2023-05-02T19:54:47.990Z,11.56
2023-05-02T19:57:15.073Z,11.51
2023-05-02T19:59:42.930Z,11.48
2023-05-02T20:02:11.897Z,11.49
2023-05-02T20:04:41.103Z,11.43
2023-05-02T20:07:08.648Z,11.36
2023-05-02T20:09:35.877Z,11.34
2023-05-02T20:12:05.465Z,11.27
2023-05-02T20:14:32.445Z,11.24
2023-05-02T20:17:02.167Z,11.14
2023-05-02T20:19:32.444Z,11.04
2023-05-02T20:22:00.966Z,10.95
2023-05-02T20:24:28.380Z,10.93
2023-05-02T20:26:55.415Z,10.87
2023-05-02T20:29:23.497Z,10.87
2023-05-02T20:31:50.595Z,10.88
2023-05-02T20:34:18.087Z,10.88
2023-05-02T20:36:45.201Z,10.91
2023-05-02T20:39:12.331Z,10.93
2023-05-02T20:41:40.021Z,10.90
2023-05-02T20:44:06.991Z,10.84
2023-05-02T20:46:34.070Z,10.80
2023-05-02T20:49:02.415Z,10.77
2023-05-02T20:51:32.326Z,10.76
2023-05-02T20:53:59.516Z,10.75
2023-05-02T20:56:26.453Z,10.71
2023-05-02T20:58:53.557Z,10.69
2023-05-02T21:01:21.634Z,10.64
2023-05-02T21:03:49.531Z,10.62
2023-05-02T21:06:19.359Z,10.60
2023-05-02T21:08:46.451Z,10.54
2023-05-02T21:11:14.712Z,10.59
2023-05-02T21:13:43.052Z,10.56
2023-05-02T21:16:18.855Z,10.60
2023-05-02T21:18:47.715Z,10.60
2023-05-02T21:21:14.666Z,10.57
2023-05-02T21:23:41.535Z,10.57
2023-05-02T21:26:08.521Z,10.58
2023-05-02T21:28:35.707Z,10.55
2023-05-02T21:31:03.059Z,10.59
2023-05-02T21:33:30.092Z,10.58
2023-05-02T21:35:58.355Z,10.61
2023-05-02T21:38:29.967Z,10.56
2023-05-02T21:41:02.404Z,10.60
2023-05-02T21:43:30.160Z,10.59
2023-05-02T21:45:57.131Z,10.57
2023-05-02T21:48:24.104Z,10.51
2023-05-02T21:50:51.244Z,10.47
2023-05-02T21:53:18.363Z,10.45
2023-05-02T21:55:45.330Z,10.44
2023-05-02T21:58:12.822Z,10.45
2023-05-02T22:00:41.542Z,10.40
2023-05-02T22:03:12.040Z,10.45
2023-05-02T22:05:42.208Z,10.49
2023-05-02T22:08:11.338Z,10.53
2023-05-02T22:10:41.442Z,10.57
2023-05-02T22:13:12.570Z,10.55
2023-05-02T22:15:46.566Z,10.54
2023-05-02T22:18:14.708Z,10.56
2023-05-02T22:20:43.384Z,10.51
2023-05-02T22:23:11.165Z,10.50
2023-05-02T22:25:40.709Z,10.50
2023-05-02T22:28:11.599Z,10.51
2023-05-02T22:30:39.624Z,10.51
2023-05-02T22:33:07.703Z,10.38
2023-05-02T22:35:37.837Z,10.29
2023-05-02T22:38:05.742Z,10.27
2023-05-02T22:40:33.048Z,10.28
2023-05-02T22:43:01.011Z,10.26
2023-05-02T22:45:28.221Z,10.20
2023-05-02T22:47:55.468Z,10.20
2023-05-02T22:50:22.598Z,10.21
2023-05-02T22:52:49.587Z,10.22
2023-05-02T22:55:16.738Z,10.20
2023-05-02T22:57:43.734Z,10.16
2023-05-02T23:00:11.394Z,10.21
2023-05-02T23:02:38.978Z,10.20
2023-05-02T23:05:07.185Z,10.21
2023-05-02T23:07:34.467Z,10.22
2023-05-02T23:10:02.060Z,10.25
2023-05-02T23:12:29.275Z,10.22
2023-05-02T23:14:56.398Z,10.26
2023-05-02T23:17:23.519Z,10.23
2023-05-02T23:19:50.737Z,10.24
2023-05-02T23:22:17.783Z,10.25
2023-05-02T23:24:46.728Z,10.24
2023-05-02T23:27:13.811Z,10.26
2023-05-02T23:29:40.808Z,10.26
2023-05-02T23:32:08.640Z,10.30
2023-05-02T23:34:38.603Z,10.31
2023-05-02T23:37:07.202Z,10.33
2023-05-02T23:39:34.498Z,10.35
2023-05-02T23:42:03.960Z,10.33
2023-05-02T23:44:31.610Z,10.36
2023-05-02T23:47:02.255Z,10.33
2023-05-02T23:49:29.333Z,10.39
2023-05-02T23:51:56.344Z,10.37
2023-05-02T23:54:24.063Z,10.38
2023-05-02T23:56:53.502Z,10.40
2023-05-02T23:59:20.473Z,10.38
